Time;durP1;ratioP1;P1;durP2;ratioP2;P2;SDS_P1;SDS_P2;PMS_P1;PMS_P2;Temp;Humidity;BMP_temperature;BMP_pressure;BME280_temperature;BME280_humidity;BME280_pressure;Samples;Min_cycle;Max_cycle;Signal;HPM_P1;HPM_P2
2021/01/20 00:00:20;;;;;;;1.58;0.80;;;;;;;6.44;55.53;94950.16;5032492;28;20030;-77
2021/01/20 00:02:45;;;;;;;1.20;0.90;;;;;;;6.39;55.29;94947.56;5029131;28;20121;-76
2021/01/20 00:05:12;;;;;;;1.20;0.60;;;;;;;6.28;56.32;94945.31;5030508;28;20044;-76
2021/01/20 00:07:38;;;;;;;0.95;0.85;;;;;;;6.05;57.25;94952.19;5028876;28;20046;-76
2021/01/20 00:10:05;;;;;;;1.90;0.70;;;;;;;6.12;57.37;94958.69;5030311;28;20622;-76
2021/01/20 00:12:30;;;;;;;2.05;0.63;;;;;;;5.96;57.81;94938.78;5028803;28;20029;-76
2021/01/20 00:14:55;;;;;;;0.68;0.60;;;;;;;5.65;58.86;94932.97;5032043;28;20091;-75
2021/01/20 00:17:21;;;;;;;1.10;0.75;;;;;;;5.88;58.68;94942.00;5028621;28;20076;-75
2021/01/20 00:19:47;;;;;;;1.30;0.90;;;;;;;5.79;58.58;94943.69;5029897;28;20045;-76
2021/01/20 00:22:12;;;;;;;1.00;0.68;;;;;;;5.71;58.71;94919.44;5030010;28;20029;-75
2021/01/20 00:24:38;;;;;;;2.15;0.70;;;;;;;5.66;58.21;94918.72;5030062;28;20052;-76
2021/01/20 00:27:07;;;;;;;1.75;0.82;;;;;;;5.48;58.64;94896.47;5031704;28;20025;-76
2021/01/20 00:29:36;;;;;;;0.50;0.50;;;;;;;5.60;58.51;94917.97;5030074;28;20049;-76
2021/01/20 00:32:02;;;;;;;0.60;0.60;;;;;;;5.49;58.80;94919.13;5029506;28;20034;-77
2021/01/20 00:34:27;;;;;;;0.68;0.68;;;;;;;5.39;58.60;94908.66;5029906;28;20049;-76
2021/01/20 00:36:53;;;;;;;0.80;0.55;;;;;;;5.38;58.00;94889.41;5029900;28;20514;-76
2021/01/20 00:39:18;;;;;;;0.90;0.80;;;;;;;5.58;57.87;94912.19;5031911;28;20058;-76
2021/01/20 00:41:45;;;;;;;0.82;0.52;;;;;;;5.46;58.17;94906.47;5028083;28;20132;-78
2021/01/20 00:44:11;;;;;;;0.80;0.50;;;;;;;5.70;56.65;94917.88;5029864;28;20171;-75
2021/01/20 00:46:36;;;;;;;0.88;0.60;;;;;;;5.37;56.84;94900.22;5029867;28;20034;-75
2021/01/20 00:49:02;;;;;;;0.35;0.35;;;;;;;5.47;56.71;94900.13;5029427;28;20045;-78
2021/01/20 00:51:27;;;;;;;0.60;0.60;;;;;;;5.63;56.01;94912.16;5029551;28;20026;-76
2021/01/20 00:53:53;;;;;;;0.50;0.40;;;;;;;5.66;55.43;94901.03;5031568;28;20104;-76
2021/01/20 00:56:18;;;;;;;0.38;0.38;;;;;;;5.63;55.22;94909.50;5028936;28;20069;-76
2021/01/20 00:58:43;;;;;;;1.02;0.50;;;;;;;5.53;55.00;94899.06;5029347;28;20041;-77
2021/01/20 01:01:09;;;;;;;0.60;0.52;;;;;;;5.54;54.55;94891.91;5029521;28;20484;-78
2021/01/20 01:03:34;;;;;;;0.65;0.20;;;;;;;5.73;53.10;94912.06;5028025;28;20022;-76
2021/01/20 01:05:59;;;;;;;0.60;0.40;;;;;;;5.67;52.81;94899.94;5031671;28;20022;-76
2021/01/20 01:08:25;;;;;;;0.30;0.30;;;;;;;5.86;51.74;94902.69;5027636;28;20042;-76
2021/01/20 01:10:52;;;;;;;0.40;0.30;;;;;;;5.93;51.70;94916.34;5029447;28;20569;-77
2021/01/20 01:13:18;;;;;;;0.30;0.30;;;;;;;5.86;50.52;94905.31;5029096;28;20092;-77
2021/01/20 01:15:43;;;;;;;0.73;0.32;;;;;;;5.99;50.43;94925.03;5029358;28;20515;-76
2021/01/20 01:18:08;;;;;;;0.63;0.47;;;;;;;5.87;49.57;94920.09;5031173;28;20017;-75
2021/01/20 01:20:35;;;;;;;0.43;0.30;;;;;;;5.83;50.83;94924.34;5029293;28;20037;-76
2021/01/20 01:23:00;;;;;;;0.40;0.40;;;;;;;5.83;50.31;94936.75;5029018;28;20128;-76
2021/01/20 01:25:26;;;;;;;0.40;0.20;;;;;;;5.96;49.48;94929.00;5027988;28;20132;-76
2021/01/20 01:27:51;;;;;;;0.30;0.30;;;;;;;5.83;50.44;94926.19;5032954;28;20044;-76
2021/01/20 01:30:17;;;;;;;0.45;0.40;;;;;;;5.62;50.37;94930.88;5035065;28;20024;-76
2021/01/20 01:32:42;;;;;;;0.43;0.28;;;;;;;5.77;50.32;94945.78;5031595;28;20037;-75
2021/01/20 01:35:08;;;;;;;0.30;0.30;;;;;;;5.69;50.23;94934.78;5031799;28;20125;-77
2021/01/20 01:37:33;;;;;;;0.57;0.47;;;;;;;5.66;49.69;94919.50;5030552;28;20041;-76
2021/01/20 01:39:59;;;;;;;0.35;0.30;;;;;;;5.67;49.81;94944.81;5030708;28;20099;-76
2021/01/20 01:42:25;;;;;;;0.20;0.20;;;;;;;5.70;49.76;94943.50;5032245;28;20049;-75
2021/01/20 01:44:51;;;;;;;0.38;0.20;;;;;;;5.80;49.70;94946.03;5032192;28;20119;-76
2021/01/20 01:47:16;;;;;;;0.55;0.20;;;;;;;5.74;49.41;94944.50;5031465;28;20475;-76
2021/01/20 01:49:41;;;;;;;0.20;0.20;;;;;;;5.52;49.58;94939.66;5031796;28;20033;-77
2021/01/20 01:52:07;;;;;;;1.17;0.35;;;;;;;5.44;49.76;94890.16;5031733;28;20052;-76
2021/01/20 01:54:32;;;;;;;0.30;0.30;;;;;;;5.55;49.66;94931.22;5031915;28;20030;-77
2021/01/20 01:56:59;;;;;;;0.30;0.30;;;;;;;5.81;49.13;94937.03;5032120;28;20021;-76
2021/01/20 01:59:24;;;;;;;0.28;0.28;;;;;;;5.86;49.44;94944.13;5031249;28;20037;-75
2021/01/20 02:01:50;;;;;;;0.38;0.38;;;;;;;5.95;49.43;94942.50;5031401;28;20033;-77
2021/01/20 02:04:15;;;;;;;0.47;0.40;;;;;;;5.92;48.64;94932.47;5031318;28;20395;-76
2021/01/20 02:06:41;;;;;;;2.38;0.40;;;;;;;5.92;49.09;94948.31;5031497;28;20596;-77
2021/01/20 02:09:07;;;;;;;0.40;0.30;;;;;;;5.76;49.09;94923.13;5033396;28;20029;-77
2021/01/20 02:12:06;;;;;;;0.30;0.30;;;;;;;5.77;49.29;94933.38;5030949;28;20561;-75
2021/01/20 02:14:51;;;;;;;0.20;0.17;;;;;;;5.73;49.79;94932.34;5030879;28;20645;-77
2021/01/20 02:17:41;;;;;;;1.45;0.40;;;;;;;5.69;50.11;94944.56;5030350;28;20045;-78
2021/01/20 02:20:34;;;;;;;1.00;0.40;;;;;;;5.61;50.54;94942.50;5030774;28;20046;-76
2021/01/20 02:23:04;;;;;;;0.60;0.35;;;;;;;5.49;50.98;94934.97;5030803;28;20039;-78
2021/01/20 02:25:43;;;;;;;0.50;0.40;;;;;;;5.46;51.45;94949.47;5030949;28;20042;-77
2021/01/20 02:28:15;;;;;;;0.45;0.30;;;;;;;5.39;51.80;94946.38;5030972;28;20171;-77
2021/01/20 02:30:43;;;;;;;0.30;0.30;;;;;;;5.34;51.95;94945.63;5011925;28;548650;-76
2021/01/20 02:33:10;;;;;;;0.80;0.35;;;;;;;5.18;52.48;94927.28;5033914;28;20025;-76
2021/01/20 02:35:37;;;;;;;0.40;0.30;;;;;;;5.24;52.68;94924.59;5032147;28;20140;-76
2021/01/20 02:38:03;;;;;;;0.50;0.40;;;;;;;5.19;52.67;94928.06;5030452;28;20107;-76
2021/01/20 02:40:29;;;;;;;0.63;0.50;;;;;;;5.14;53.04;94928.88;5031948;28;20034;-76
2021/01/20 02:42:54;;;;;;;0.50;0.45;;;;;;;5.07;53.35;94917.88;5031971;28;20043;-77
2021/01/20 02:45:20;;;;;;;0.73;0.50;;;;;;;5.08;53.24;94927.34;5033964;28;20069;-77
2021/01/20 02:47:47;;;;;;;0.40;0.40;;;;;;;5.08;53.53;94927.34;5031969;28;20029;-76
2021/01/20 02:50:13;;;;;;;0.98;0.50;;;;;;;4.87;53.43;94899.56;5032198;28;20045;-76
2021/01/20 02:53:09;;;;;;;0.73;0.45;;;;;;;5.00;53.55;94922.63;5031801;28;20044;-76
2021/01/20 02:55:35;;;;;;;0.70;0.45;;;;;;;5.00;53.75;94933.19;5032085;28;20045;-77
2021/01/20 02:58:09;;;;;;;0.93;0.60;;;;;;;4.96;53.71;94924.25;5031768;28;20030;-77
2021/01/20 03:00:38;;;;;;;0.60;0.40;;;;;;;4.89;53.97;94911.38;5031731;28;20026;-77
2021/01/20 03:03:07;;;;;;;0.30;0.30;;;;;;;4.95;53.87;94914.75;5033393;28;20586;-76
2021/01/20 03:05:33;;;;;;;0.50;0.30;;;;;;;4.84;53.96;94913.25;5031568;28;20037;-76
2021/01/20 03:08:00;;;;;;;0.30;0.20;;;;;;;4.90;53.69;94923.50;5031281;28;20091;-75
2021/01/20 03:10:25;;;;;;;1.75;0.63;;;;;;;4.81;53.92;94911.16;5030137;28;20498;-75
2021/01/20 03:12:51;;;;;;;0.50;0.40;;;;;;;4.86;54.40;94919.03;5031269;28;20041;-76
2021/01/20 03:15:22;;;;;;;0.90;0.50;;;;;;;4.81;54.52;94913.78;5033218;28;20043;-75
2021/01/20 03:17:48;;;;;;;0.50;0.50;;;;;;;4.76;54.79;94917.28;5031053;28;20041;-77
2021/01/20 03:20:14;;;;;;;0.45;0.30;;;;;;;4.68;54.79;94900.16;5031301;28;20048;-75
2021/01/20 03:22:39;;;;;;;0.43;0.40;;;;;;;4.68;54.95;94902.03;5031023;28;20376;-75
2021/01/20 03:25:05;;;;;;;0.95;0.50;;;;;;;4.42;54.50;94864.50;5029559;28;20044;-75
2021/01/20 03:27:30;;;;;;;0.43;0.43;;;;;;;4.63;54.78;94897.56;5029919;28;20041;-76
2021/01/20 03:29:56;;;;;;;0.50;0.35;;;;;;;4.65;55.05;94897.28;5031026;28;20029;-77
2021/01/20 03:32:21;;;;;;;0.50;0.40;;;;;;;3.80;54.59;94771.88;5040561;23;20447;-65
2021/01/20 03:34:46;;;;;;;1.10;0.45;;;;;;;2.80;54.81;94648.41;4997993;28;20153;-66
2021/01/20 03:37:12;;;;;;;0.20;0.20;;;;;;;2.60;54.71;94578.31;4989879;28;20042;-65
2021/01/20 03:39:37;;;;;;;0.70;0.50;;;;;;;2.98;54.70;94649.66;4990343;28;20080;-65
2021/01/20 03:42:03;;;;;;;0.40;0.32;;;;;;;2.93;54.70;94634.72;4992160;28;20034;-64
2021/01/20 03:44:28;;;;;;;0.30;0.30;;;;;;;2.62;54.79;94601.72;4988650;28;20065;-65
2021/01/20 03:46:53;;;;;;;0.40;0.32;;;;;;;2.70;54.80;94601.94;4988774;28;20137;-65
2021/01/20 03:49:19;;;;;;;0.55;0.47;;;;;;;2.73;54.80;94613.75;4989324;28;20412;-65
2021/01/20 03:51:47;;;;;;;0.70;0.50;;;;;;;2.57;54.89;94586.75;4989675;28;20050;-65
2021/01/20 03:54:13;;;;;;;0.40;0.40;;;;;;;2.95;54.81;94674.63;4992091;28;20077;-65
2021/01/20 03:56:38;;;;;;;0.40;0.40;;;;;;;2.94;55.11;94631.03;4989856;28;20045;-65
2021/01/20 03:59:04;;;;;;;1.25;0.60;;;;;;;3.79;55.05;94765.03;4989182;28;20046;-64
2021/01/20 04:01:29;;;;;;;1.17;0.60;;;;;;;3.98;55.43;94817.03;4986908;28;20042;-64
2021/01/20 04:03:55;;;;;;;1.63;0.40;;;;;;;2.75;55.40;94622.16;4988345;28;20623;-65
2021/01/20 04:06:20;;;;;;;0.80;0.43;;;;;;;4.47;55.21;94905.81;4991899;28;20404;-64
2021/01/20 04:08:46;;;;;;;0.68;0.40;;;;;;;4.45;55.25;94871.84;4989346;28;20557;-65
2021/01/20 04:11:12;;;;;;;0.55;0.40;;;;;;;4.40;55.29;94899.00;4987774;28;20100;-65
2021/01/20 04:13:37;;;;;;;1.17;0.63;;;;;;;2.15;55.52;94545.91;4987629;28;20074;-65
2021/01/20 04:16:03;;;;;;;0.60;0.50;;;;;;;2.74;55.53;94631.88;4989686;28;20046;-64
2021/01/20 04:18:28;;;;;;;0.90;0.50;;;;;;;4.30;55.76;94867.47;4989493;28;20034;-64
2021/01/20 04:20:54;;;;;;;1.02;0.40;;;;;;;3.52;56.28;94762.75;4991558;28;20041;-64
2021/01/20 04:23:19;;;;;;;0.80;0.35;;;;;;;2.09;55.90;94589.69;4987716;28;20034;-64
2021/01/20 04:25:45;;;;;;;0.50;0.45;;;;;;;3.16;56.01;94740.25;4989276;28;20507;-63
2021/01/20 04:28:10;;;;;;;1.02;0.43;;;;;;;4.06;55.96;94848.06;4988008;28;20057;-63
2021/01/20 04:30:36;;;;;;;0.70;0.60;;;;;;;3.12;56.47;94714.53;4989672;28;20476;-64
2021/01/20 04:33:01;;;;;;;0.50;0.50;;;;;;;4.09;56.33;94865.94;4991208;28;20556;-65
2021/01/20 04:35:26;;;;;;;0.88;0.55;;;;;;;2.23;56.48;94594.41;4987657;28;20611;-67
2021/01/20 04:37:52;;;;;;;1.08;0.55;;;;;;;1.89;56.61;94558.25;4988920;28;20122;-66
2021/01/20 04:40:17;;;;;;;0.95;0.60;;;;;;;2.79;56.65;94705.38;4989428;28;20034;-66
2021/01/20 04:42:44;;;;;;;0.90;0.40;;;;;;;3.25;56.93;94765.72;4989074;28;20030;-65
2021/01/20 04:45:10;;;;;;;0.40;0.40;;;;;;;3.27;56.99;94782.00;4991260;28;20030;-65
2021/01/20 04:47:36;;;;;;;0.63;0.47;;;;;;;3.83;57.32;94867.88;4989110;28;20396;-65
2021/01/20 04:50:03;;;;;;;0.80;0.70;;;;;;;3.30;57.76;94793.84;4989248;28;20523;-66
2021/01/20 04:52:33;;;;;;;0.70;0.68;;;;;;;3.59;57.87;94844.03;4986277;28;20137;-64
2021/01/20 04:55:00;;;;;;;3.22;0.50;;;;;;;1.68;57.97;94554.06;4986937;28;20070;-65
2021/01/20 04:57:26;;;;;;;0.95;0.47;;;;;;;1.78;58.07;94609.13;4988691;28;20022;-64
2021/01/20 04:59:51;;;;;;;1.38;0.70;;;;;;;3.37;58.31;94824.06;4990855;28;20439;-64
2021/01/20 05:02:18;;;;;;;0.90;0.60;;;;;;;1.87;58.58;94593.66;4986737;28;20038;-67
2021/01/20 05:04:43;;;;;;;1.88;0.75;;;;;;;1.35;58.29;94561.38;4987198;28;20050;-63
2021/01/20 05:07:09;;;;;;;0.70;0.50;;;;;;;2.58;58.80;94704.63;4989088;28;20056;-64
2021/01/20 05:09:35;;;;;;;0.50;0.45;;;;;;;1.80;58.94;94613.06;4989130;28;20027;-64
2021/01/20 05:12:00;;;;;;;1.00;0.55;;;;;;;3.27;59.04;94834.59;4990897;28;20599;-64
2021/01/20 05:14:26;;;;;;;1.52;0.50;;;;;;;2.39;58.76;94681.78;4988799;28;20042;-65
2021/01/20 05:16:53;;;;;;;7.18;0.50;;;;;;;3.40;58.83;94833.28;4989274;28;20043;-66
2021/01/20 05:19:40;;;;;;;3.53;0.65;;;;;;;2.18;58.78;94652.94;4990159;28;20089;-65
2021/01/20 05:22:11;;;;;;;0.80;0.47;;;;;;;1.45;58.97;94569.25;4989270;28;20141;-66
2021/01/20 05:24:37;;;;;;;2.00;0.90;;;;;;;3.24;59.16;94813.31;4990231;28;20037;-66
2021/01/20 05:27:04;;;;;;;1.23;0.40;;;;;;;3.47;59.48;94862.69;4991816;28;20033;-67
2021/01/20 05:29:29;;;;;;;0.75;0.40;;;;;;;3.05;59.63;94794.69;4986589;28;20132;-63
2021/01/20 05:31:55;;;;;;;0.70;0.52;;;;;;;3.38;59.40;94844.06;4988197;28;20098;-65
2021/01/20 05:34:36;;;;;;;2.35;0.70;;;;;;;3.21;59.91;94816.47;4990094;28;20054;-62
2021/01/20 05:37:02;;;;;;;1.08;0.50;;;;;;;3.42;59.83;94856.66;4987166;28;20077;-61
2021/01/20 05:39:28;;;;;;;0.45;0.45;;;;;;;3.28;60.19;94840.66;4989433;28;20104;-60
2021/01/20 05:42:19;;;;;;;1.00;1.00;;;;;;;3.37;60.43;94852.97;4991579;28;20033;-60
2021/01/20 05:45:01;;;;;;;1.15;0.70;;;;;;;3.28;60.11;94838.03;4987869;28;20112;-62
2021/01/20 05:47:27;;;;;;;0.88;0.82;;;;;;;3.34;60.52;94843.00;4985659;28;20042;-64
2021/01/20 05:50:04;;;;;;;1.13;0.50;;;;;;;3.31;60.81;94848.00;4989877;28;20053;-63
2021/01/20 05:52:30;;;;;;;0.98;0.60;;;;;;;2.92;60.90;94790.75;4989735;28;20058;-60
2021/01/20 05:54:55;;;;;;;1.02;0.70;;;;;;;3.28;61.06;94845.91;4988692;28;20046;-65
2021/01/20 05:57:21;;;;;;;1.10;0.77;;;;;;;3.24;61.60;94845.66;4989770;28;20023;-64
2021/01/20 05:59:48;;;;;;;1.92;0.85;;;;;;;3.22;61.88;94845.09;4986575;28;20129;-63
2021/01/20 06:02:15;;;;;;;2.47;0.82;;;;;;;2.83;61.92;94787.09;4989532;28;20046;-60
2021/01/20 06:04:42;;;;;;;1.58;0.73;;;;;;;2.71;61.73;94773.41;4987148;28;20574;-64
2021/01/20 06:07:09;;;;;;;0.77;0.57;;;;;;;3.15;61.78;94880.59;4988239;28;20069;-63
2021/01/20 06:09:36;;;;;;;1.33;0.90;;;;;;;3.13;62.24;94850.13;4989518;28;20029;-62
2021/01/20 06:12:05;;;;;;;0.70;0.70;;;;;;;2.41;62.10;94743.50;4992025;28;20026;-63
2021/01/20 06:14:30;;;;;;;1.25;0.80;;;;;;;3.10;62.52;94849.84;4991460;28;20430;-64
2021/01/20 06:17:03;;;;;;;1.23;0.82;;;;;;;1.87;62.09;94662.63;4992918;28;20043;-63
2021/01/20 06:19:30;;;;;;;0.70;0.70;;;;;;;2.82;62.16;94801.28;4991796;28;20145;-63
2021/01/20 06:21:58;;;;;;;1.92;0.73;;;;;;;2.46;62.50;94753.22;4988496;28;20165;-63
2021/01/20 06:24:36;;;;;;;2.22;1.13;;;;;;;3.09;62.67;94843.03;4992753;28;20038;-63
2021/01/20 06:27:10;;;;;;;2.03;1.48;;;;;;;2.60;62.91;94772.63;5000850;28;20034;-63
2021/01/20 06:29:40;;;;;;;1.35;0.70;;;;;;;3.13;63.00;94836.97;5010777;28;20407;-62
2021/01/20 06:32:08;;;;;;;1.33;0.73;;;;;;;3.17;62.68;94847.75;5012060;28;20046;-63
2021/01/20 06:34:33;;;;;;;1.88;0.95;;;;;;;3.19;62.88;94836.97;5012400;28;20054;-64
2021/01/20 06:36:58;;;;;;;3.85;0.90;;;;;;;2.63;62.74;94766.84;5011948;28;20045;-64
2021/01/20 06:39:27;;;;;;;2.92;1.23;;;;;;;3.25;62.81;94836.69;5009815;28;20101;-63
2021/01/20 06:41:53;;;;;;;1.08;0.90;;;;;;;3.27;62.73;94833.81;4999246;28;20034;-64
2021/01/20 06:44:18;;;;;;;1.33;0.95;;;;;;;2.93;62.70;94778.41;5010640;28;20079;-65
2021/01/20 06:46:56;;;;;;;1.58;1.00;;;;;;;3.30;62.92;94830.66;4993024;28;20074;-63
2021/01/20 06:49:25;;;;;;;3.08;1.05;;;;;;;3.20;63.01;94818.31;5005863;28;20042;-63
2021/01/20 06:52:26;;;;;;;1.40;0.70;;;;;;;3.29;63.57;94829.09;5009999;28;20056;-64
2021/01/20 06:54:51;;;;;;;1.00;0.80;;;;;;;3.39;63.41;94837.75;4989969;28;20042;-65
2021/01/20 06:57:31;;;;;;;1.25;0.70;;;;;;;3.05;62.63;94779.69;5020333;28;20044;-64
2021/01/20 07:00:05;;;;;;;3.53;0.57;;;;;;;3.48;63.15;94835.38;5012292;28;20117;-67
2021/01/20 07:02:31;;;;;;;1.48;0.70;;;;;;;3.35;62.44;94807.78;5010362;28;20513;-62
2021/01/20 07:04:56;;;;;;;1.55;0.63;;;;;;;3.19;62.49;94782.56;5010554;28;20033;-61
2021/01/20 07:07:53;;;;;;;1.10;0.60;;;;;;;3.63;62.17;94837.16;5010403;28;20435;-63
2021/01/20 07:10:23;;;;;;;4.63;1.10;;;;;;;3.23;61.89;94765.22;5011707;28;20042;-64
2021/01/20 07:13:17;;;;;;;2.78;1.00;;;;;;;3.76;61.90;94835.81;5011597;28;20034;-61
2021/01/20 07:15:51;;;;;;;2.15;1.00;;;;;;;3.47;61.49;94781.19;5010536;28;20038;-60
2021/01/20 07:18:17;;;;;;;1.30;0.68;;;;;;;3.78;61.89;94812.66;5013296;28;20101;-63
2021/01/20 07:20:43;;;;;;;1.77;0.88;;;;;;;3.87;61.31;94811.03;5010629;28;20187;-66
2021/01/20 07:23:09;;;;;;;1.48;1.17;;;;;;;4.04;61.10;94827.28;5010074;28;20649;-64
2021/01/20 07:25:34;;;;;;;1.95;0.90;;;;;;;4.07;60.64;94818.06;5011045;28;20041;-64
2021/01/20 07:28:00;;;;;;;1.50;1.10;;;;;;;3.96;60.35;94787.59;5011365;28;20034;-64
2021/01/20 07:30:27;;;;;;;2.72;1.02;;;;;;;4.28;60.55;94821.38;5010995;28;20105;-63
2021/01/20 07:32:53;;;;;;;1.58;1.00;;;;;;;4.27;60.00;94804.00;5012799;28;20405;-65
2021/01/20 07:35:24;;;;;;;0.75;0.70;;;;;;;4.44;59.92;94823.66;5008660;28;20140;-65
2021/01/20 07:38:07;;;;;;;1.35;1.17;;;;;;;4.26;59.34;94776.91;5009559;28;20080;-64
2021/01/20 07:40:38;;;;;;;1.60;1.08;;;;;;;4.44;59.36;94794.69;5009634;28;20045;-67
2021/01/20 07:43:04;;;;;;;0.82;0.80;;;;;;;4.50;59.00;94807.81;5008312;28;20058;-66
2021/01/20 07:45:37;;;;;;;1.13;0.93;;;;;;;4.24;58.95;94767.69;5010691;28;20458;-63
2021/01/20 07:48:05;;;;;;;4.18;1.20;;;;;;;4.09;58.86;94708.03;5012772;28;20030;-66
2021/01/20 07:50:48;;;;;;;1.83;0.95;;;;;;;3.49;58.51;94613.44;5009715;28;20441;-64
2021/01/20 07:53:18;;;;;;;2.50;1.15;;;;;;;4.93;58.43;94814.88;5008929;28;20045;-67
2021/01/20 07:55:46;;;;;;;2.00;1.10;;;;;;;4.63;57.91;94760.56;5010854;28;20042;-65
2021/01/20 07:58:12;;;;;;;2.03;1.33;;;;;;;4.75;57.80;94759.44;5025517;28;20140;-65
2021/01/20 08:00:47;;;;;;;2.70;1.65;;;;;;;5.11;57.45;94802.09;5010640;28;20029;-65
2021/01/20 08:03:14;;;;;;;2.70;1.30;;;;;;;5.21;57.30;94805.41;5012371;28;20041;-66
2021/01/20 08:05:43;;;;;;;1.95;1.20;;;;;;;4.88;56.85;94737.72;5010472;28;20050;-65
2021/01/20 08:08:11;;;;;;;1.70;1.15;;;;;;;5.44;56.91;94806.53;5010337;28;20089;-66
2021/01/20 08:10:38;;;;;;;1.38;0.90;;;;;;;5.55;56.63;94817.75;5010436;28;20052;-67
2021/01/20 08:13:05;;;;;;;1.10;1.00;;;;;;;5.52;56.28;94789.28;5024530;28;20131;-66
2021/01/20 08:15:32;;;;;;;2.10;0.80;;;;;;;4.74;55.73;94666.44;5010071;28;20026;-65
2021/01/20 08:17:58;;;;;;;0.88;0.75;;;;;;;5.83;55.98;94807.44;5012699;28;20034;-67
2021/01/20 08:20:25;;;;;;;1.48;0.90;;;;;;;5.08;55.79;94681.41;5009620;28;20064;-66
2021/01/20 08:22:52;;;;;;;2.22;0.85;;;;;;;6.03;55.68;94824.91;5006788;28;20099;-69
2021/01/20 08:25:19;;;;;;;1.00;0.90;;;;;;;5.79;54.84;94769.50;5009825;28;20562;-65
2021/01/20 08:27:45;;;;;;;2.03;1.00;;;;;;;4.02;54.04;94474.13;5009311;28;20038;-66
2021/01/20 08:30:12;;;;;;;2.75;1.00;;;;;;;6.05;54.43;94777.91;5012207;28;20423;-66
2021/01/20 08:32:54;;;;;;;1.70;1.10;;;;;;;6.23;53.61;94766.56;5009902;28;20041;-69
2021/01/20 08:35:34;;;;;;;0.80;0.80;;;;;;;6.06;54.02;94740.66;5008956;28;20049;-62
2021/01/20 08:38:00;;;;;;;1.05;0.93;;;;;;;5.41;53.12;94611.91;5007767;28;20048;-63
2021/01/20 08:40:26;;;;;;;1.90;1.10;;;;;;;6.80;53.38;94798.25;5007413;28;20411;-64
2021/01/20 08:42:52;;;;;;;1.50;0.90;;;;;;;6.66;52.83;94764.63;5009411;28;20042;-62
2021/01/20 08:45:30;;;;;;;1.48;0.93;;;;;;;6.92;52.62;94780.09;5012360;28;20109;-62
2021/01/20 08:48:02;;;;;;;2.38;1.00;;;;;;;5.74;52.91;94582.97;5010049;28;20038;-62
2021/01/20 08:50:27;;;;;;;1.08;0.80;;;;;;;7.28;52.08;94794.28;5009063;28;20042;-62
2021/01/20 08:52:53;;;;;;;1.88;0.70;;;;;;;5.97;51.77;94578.69;5009759;28;20115;-63
2021/01/20 08:55:20;;;;;;;0.85;0.75;;;;;;;6.02;51.06;94593.66;5009632;28;20041;-61
2021/01/20 08:57:46;;;;;;;0.75;0.65;;;;;;;5.82;50.59;94507.63;5009187;28;20046;-62
2021/01/20 09:00:11;;;;;;;1.08;0.80;;;;;;;7.79;49.89;94777.47;5011867;28;20092;-61
2021/01/20 09:02:37;;;;;;;0.90;0.90;;;;;;;6.54;48.42;94581.94;5009242;28;20069;-62
2021/01/20 09:05:02;;;;;;;1.30;0.90;;;;;;;6.84;48.84;94600.97;5009337;28;20084;-60
2021/01/20 09:07:28;;;;;;;0.98;0.88;;;;;;;7.67;48.21;94675.81;5007797;28;20061;-63
2021/01/20 09:09:53;;;;;;;0.80;0.80;;;;;;;8.68;48.21;94815.94;5009581;28;20041;-62
2021/01/20 09:12:19;;;;;;;1.13;0.60;;;;;;;8.74;47.44;94777.59;5011510;28;20088;-61
2021/01/20 09:14:45;;;;;;;1.23;0.80;;;;;;;9.06;46.75;94834.19;5009910;28;20045;-63
2021/01/20 09:17:10;;;;;;;1.05;0.85;;;;;;;9.22;46.30;94822.13;5008998;28;20038;-62
2021/01/20 09:19:36;;;;;;;1.70;0.70;;;;;;;8.80;44.52;94757.88;5009077;28;20096;-62
2021/01/20 09:22:01;;;;;;;1.05;0.73;;;;;;;8.68;45.54;94714.41;5008959;28;20030;-61
2021/01/20 09:24:27;;;;;;;0.88;0.60;;;;;;;7.27;44.97;94490.38;5009074;28;20026;-62
2021/01/20 09:26:52;;;;;;;0.90;0.80;;;;;;;8.38;45.44;94645.13;5011403;28;20068;-62
2021/01/20 09:29:18;;;;;;;0.93;0.55;;;;;;;9.37;45.34;94751.97;5009679;28;20038;-62
2021/01/20 09:31:44;;;;;;;1.05;0.70;;;;;;;9.71;44.36;94785.81;5007560;28;20045;-62
2021/01/20 09:34:09;;;;;;;1.45;0.95;;;;;;;9.13;45.02;94680.66;5009135;28;20691;-61
2021/01/20 09:36:35;;;;;;;0.60;0.57;;;;;;;9.73;43.93;94774.91;5009083;28;20022;-61
2021/01/20 09:39:00;;;;;;;0.80;0.65;;;;;;;7.99;43.85;94489.50;5010982;28;20108;-62
2021/01/20 09:41:26;;;;;;;0.77;0.77;;;;;;;8.65;43.31;94563.88;5008965;28;20069;-60
2021/01/20 09:43:53;;;;;;;0.57;0.50;;;;;;;10.48;43.25;94839.56;5008340;28;20188;-62
2021/01/20 09:46:20;;;;;;;0.75;0.75;;;;;;;10.14;43.22;94732.06;5007530;28;20046;-62
2021/01/20 09:48:46;;;;;;;1.52;1.08;;;;;;;10.35;42.50;94740.22;5012934;28;20036;-60
2021/01/20 09:51:11;;;;;;;1.38;1.00;;;;;;;10.78;41.52;94782.78;5033672;23;20080;-76
2021/01/20 09:53:36;;;;;;;0.65;0.65;;;;;;;10.92;41.44;94775.44;5033046;28;20033;-78
2021/01/20 09:56:02;;;;;;;0.40;0.40;;;;;;;11.10;41.16;94780.72;5015632;28;20038;-75
2021/01/20 09:58:27;;;;;;;0.80;0.60;;;;;;;11.31;40.20;94786.16;5033079;28;20026;-75
2021/01/20 10:00:52;;;;;;;1.00;0.90;;;;;;;11.30;40.25;94758.75;5025677;28;20076;-78
2021/01/20 10:03:18;;;;;;;1.50;1.40;;;;;;;11.54;40.34;94770.78;5015101;28;20034;-78
2021/01/20 10:05:43;;;;;;;0.70;0.70;;;;;;;11.67;39.97;94767.13;4995727;28;20060;-76
2021/01/20 10:08:08;;;;;;;1.65;1.00;;;;;;;11.73;39.12;94759.75;5013128;28;20042;-78
2021/01/20 10:10:34;;;;;;;0.73;0.65;;;;;;;10.60;38.73;94760.75;5013568;28;20132;-77
2021/01/20 10:12:59;;;;;;;1.45;0.95;;;;;;;11.38;39.29;94752.66;4995599;28;20084;-78
2021/01/20 10:15:24;;;;;;;0.70;0.70;;;;;;;11.49;37.69;94741.66;5013414;28;20033;-80
2021/01/20 10:17:52;;;;;;;0.85;0.60;;;;;;;11.83;37.62;94744.22;5015425;28;20084;-80
2021/01/20 10:20:17;;;;;;;1.17;0.60;;;;;;;10.72;38.90;94754.78;4995631;28;20049;-80
2021/01/20 10:22:43;;;;;;;1.75;0.82;;;;;;;10.77;38.55;94735.22;5012562;28;20038;-78
2021/01/20 10:25:08;;;;;;;1.48;0.73;;;;;;;10.82;38.92;94727.88;5013075;28;20072;-79
2021/01/20 10:27:34;;;;;;;4.75;0.88;;;;;;;11.03;38.95;94733.31;5012828;28;20026;-73
2021/01/20 10:29:59;;;;;;;0.93;0.77;;;;;;;10.90;38.81;94727.09;5015431;28;20026;-79
2021/01/20 10:32:25;;;;;;;1.42;0.60;;;;;;;10.71;37.32;94731.94;5013069;28;20512;-80
2021/01/20 10:34:50;;;;;;;0.70;0.60;;;;;;;9.51;39.43;94733.25;5013175;28;20495;-73
2021/01/20 10:37:15;;;;;;;0.90;0.80;;;;;;;10.34;38.07;94715.53;4994762;28;20699;-74
2021/01/20 10:39:41;;;;;;;2.13;1.30;;;;;;;9.87;40.47;94704.63;5008599;28;20129;-76
2021/01/20 10:42:06;;;;;;;5.93;1.60;;;;;;;10.30;40.29;94711.16;4997110;28;20048;-72
2021/01/20 10:44:32;;;;;;;6.72;2.03;;;;;;;10.05;41.65;94715.31;5012289;28;20046;-70
2021/01/20 10:46:57;;;;;;;5.35;2.08;;;;;;;10.51;40.88;94703.31;5011813;28;20044;-74
2021/01/20 10:49:23;;;;;;;4.10;1.60;;;;;;;9.58;42.38;94710.50;5012251;28;20041;-71
2021/01/20 10:51:49;;;;;;;5.50;2.05;;;;;;;9.16;43.56;94706.56;5011901;28;20550;-69
2021/01/20 10:54:15;;;;;;;2.92;1.77;;;;;;;8.31;45.32;94711.00;5014601;28;20373;-71
2021/01/20 10:56:41;;;;;;;1.90;1.65;;;;;;;8.51;44.85;94707.13;5012006;28;20048;-70
2021/01/20 10:59:06;;;;;;;3.80;1.70;;;;;;;7.88;45.95;94706.06;5012202;28;20049;-69
2021/01/20 11:01:31;;;;;;;3.30;1.75;;;;;;;8.39;45.10;94693.59;5011935;28;20045;-69
2021/01/20 11:03:57;;;;;;;4.07;2.05;;;;;;;8.14;45.72;94669.25;5012245;28;20671;-71
2021/01/20 11:06:23;;;;;;;4.63;1.98;;;;;;;8.94;44.60;94672.13;5012160;28;20025;-70
2021/01/20 11:08:48;;;;;;;4.05;1.60;;;;;;;9.07;43.85;94676.56;5013711;28;20026;-75
2021/01/20 11:11:14;;;;;;;3.67;2.15;;;;;;;8.47;44.49;94661.09;5012276;28;20050;-79
2021/01/20 11:13:40;;;;;;;4.18;1.98;;;;;;;8.44;45.25;94654.50;5011719;28;20125;-76
2021/01/20 11:16:05;;;;;;;4.22;2.03;;;;;;;9.00;43.79;94636.41;5011614;28;20487;-71
2021/01/20 11:18:34;;;;;;;3.85;2.30;;;;;;;9.35;43.22;94656.69;5011668;28;20034;-72
2021/01/20 11:21:00;;;;;;;3.22;2.30;;;;;;;9.35;42.80;94656.69;5013482;28;20068;-72
2021/01/20 11:23:35;;;;;;;3.60;2.10;;;;;;;8.91;43.62;94654.19;5009665;28;20033;-71
2021/01/20 11:26:07;;;;;;;3.53;1.88;;;;;;;8.62;43.82;94605.03;5012124;28;20038;-69
2021/01/20 11:28:34;;;;;;;1.95;1.73;;;;;;;8.78;44.35;94651.28;5011274;28;20050;-70
2021/01/20 11:30:59;;;;;;;2.45;2.00;;;;;;;9.33;43.87;94656.22;5011232;28;20462;-71
2021/01/20 11:33:24;;;;;;;5.18;2.08;;;;;;;8.63;45.00;94650.91;5011179;28;20022;-71
2021/01/20 11:35:50;;;;;;;3.13;1.80;;;;;;;8.62;44.28;94634.22;5013375;28;20088;-72
2021/01/20 11:38:15;;;;;;;3.45;1.55;;;;;;;8.89;43.96;94637.78;4993500;28;20549;-73
2021/01/20 11:40:40;;;;;;;7.68;1.83;;;;;;;9.16;44.02;94640.22;5010981;28;20631;-72
2021/01/20 11:43:06;;;;;;;2.13;1.83;;;;;;;9.57;43.06;94639.09;5011030;28;20095;-72